Time;durP1;ratioP1;P1;durP2;ratioP2;P2;SDS_P1;SDS_P2;PMS_P1;PMS_P2;Temp;Humidity;BMP_temperature;BMP_pressure;BME280_temperature;BME280_humidity;BME280_pressure;Samples;Min_cycle;Max_cycle;Signal;HPM_P1;HPM_P2
2022/03/26 00:00:31;;;;;;;10.47;5.97;;;8.40;99.90;7.60;100685;;;;585210;241;24087;-82
2022/03/26 00:03:02;;;;;;;5.27;3.97;;;8.40;99.90;7.70;100691;;;;575854;245;24078;-82
2022/03/26 00:05:28;;;;;;;10.10;6.53;;;8.40;99.90;7.60;100690;;;;575168;245;25153;-86
2022/03/26 00:07:55;;;;;;;17.97;5.77;;;8.40;99.90;7.60;100682;;;;576069;245;24065;-82
2022/03/26 00:10:23;;;;;;;11.93;5.80;;;8.40;99.90;7.60;100688;;;;576068;245;24145;-81
2022/03/26 00:12:52;;;;;;;15.63;6.67;;;8.40;99.90;7.60;100670;;;;575922;245;24081;-85
2022/03/26 00:15:20;;;;;;;10.90;6.03;;;8.40;99.90;7.60;100679;;;;575943;245;24160;-82
2022/03/26 00:17:51;;;;;;;13.63;6.67;;;8.40;99.90;7.60;100683;;;;584193;245;24117;-81
2022/03/26 00:20:16;;;;;;;8.00;5.77;;;8.40;99.90;7.60;100670;;;;574775;245;24114;-84
2022/03/26 00:22:47;;;;;;;15.83;6.03;;;8.40;99.90;7.60;100667;;;;584445;241;24076;-85
2022/03/26 00:25:14;;;;;;;14.10;7.00;;;8.40;99.90;7.60;100667;;;;575070;245;24075;-86
2022/03/26 00:27:40;;;;;;;12.87;7.27;;;8.40;99.90;7.60;100670;;;;584115;242;24098;-84
2022/03/26 00:30:08;;;;;;;12.93;7.23;;;8.30;99.90;7.60;100670;;;;575818;245;24076;-79
2022/03/26 00:32:36;;;;;;;13.23;7.53;;;8.30;99.90;7.60;100664;;;;575943;245;24082;-80
2022/03/26 00:35:03;;;;;;;13.17;6.90;;;8.30;99.90;7.60;100658;;;;575994;245;24105;-84
2022/03/26 00:37:31;;;;;;;13.13;7.87;;;8.30;99.90;7.60;100646;;;;584843;245;24171;-84
2022/03/26 00:39:59;;;;;;;13.93;7.77;;;8.40;99.90;7.60;100641;;;;575920;245;24135;-83
2022/03/26 00:42:27;;;;;;;16.03;7.97;;;8.40;99.90;7.60;100623;;;;575760;245;24127;-85
2022/03/26 00:44:55;;;;;;;16.67;8.27;;;8.40;99.90;7.60;100619;;;;575827;245;24121;-84
2022/03/26 00:47:23;;;;;;;24.03;8.63;;;8.40;99.90;7.60;100613;;;;575820;245;24074;-86
2022/03/26 00:49:51;;;;;;;11.73;7.77;;;8.40;99.90;7.60;100608;;;;575578;245;24123;-86
2022/03/26 00:52:19;;;;;;;14.07;5.87;;;8.40;99.90;7.60;100608;;;;575954;244;24079;-86
2022/03/26 00:54:47;;;;;;;15.17;8.30;;;8.40;99.90;7.60;100622;;;;576598;245;24096;-86
2022/03/26 00:57:16;;;;;;;17.30;7.63;;;8.40;99.90;7.60;100626;;;;576834;245;24102;-85
2022/03/26 00:59:43;;;;;;;16.00;8.47;;;8.40;99.90;7.60;100609;;;;576449;245;24139;-85
2022/03/26 01:02:11;;;;;;;14.40;7.93;;;8.40;99.90;7.60;100622;;;;585395;245;24083;-81
2022/03/26 01:04:39;;;;;;;14.33;6.40;;;8.30;99.90;7.60;100609;;;;585225;245;24093;-81
2022/03/26 01:07:07;;;;;;;21.93;8.77;;;8.30;99.90;7.60;100593;;;;576580;245;24095;-79
2022/03/26 01:09:35;;;;;;;21.87;9.77;;;8.40;99.90;7.60;100595;;;;576789;245;25148;-79
2022/03/26 01:12:04;;;;;;;18.10;7.50;;;8.40;99.90;7.60;100593;;;;580697;245;24083;-83
2022/03/26 01:14:35;;;;;;;25.97;8.30;;;8.40;99.90;7.60;100605;;;;576199;245;24107;-81
2022/03/26 01:17:00;;;;;;;13.20;8.00;;;8.40;99.90;7.60;100609;;;;575930;245;24138;-84
2022/03/26 01:19:27;;;;;;;12.77;7.03;;;8.40;99.90;7.60;100621;;;;575545;245;24076;-83
2022/03/26 01:21:55;;;;;;;14.50;7.70;;;8.40;99.90;7.60;100621;;;;575751;245;24077;-85
2022/03/26 01:24:23;;;;;;;17.37;8.40;;;8.40;99.90;7.60;100612;;;;575613;245;24087;-84
2022/03/26 01:26:51;;;;;;;10.47;7.50;;;8.40;99.90;7.60;100615;;;;584356;245;24097;-82
2022/03/26 01:29:19;;;;;;;17.93;8.37;;;8.30;99.90;7.50;100609;;;;575480;245;24084;-83
2022/03/26 01:31:48;;;;;;;17.90;9.47;;;8.30;99.90;7.50;100615;;;;575596;245;24073;-79
2022/03/26 01:34:16;;;;;;;22.17;9.47;;;8.30;99.90;7.50;100617;;;;575506;245;24076;-78
2022/03/26 01:36:44;;;;;;;14.73;8.70;;;8.20;99.90;7.40;100620;;;;575459;245;24088;-80
2022/03/26 01:39:12;;;;;;;15.17;8.77;;;8.20;99.90;7.40;100604;;;;575673;245;24094;-79
2022/03/26 01:41:40;;;;;;;12.37;6.93;;;8.10;99.90;7.30;100603;;;;575801;245;24101;-80
2022/03/26 01:44:08;;;;;;;19.60;9.30;;;8.10;99.90;7.20;100607;;;;584710;241;24086;-85
2022/03/26 01:46:48;;;;;;;14.33;7.70;;;8.00;99.90;7.20;100613;;;;575098;245;24110;-83
2022/03/26 01:49:16;;;;;;;25.37;10.10;;;8.00;99.90;7.20;100609;;;;575956;245;24103;-83
2022/03/26 01:51:44;;;;;;;11.97;7.67;;;8.00;99.90;7.10;100602;;;;575759;245;24102;-85
2022/03/26 01:54:12;;;;;;;19.03;9.73;;;7.90;99.90;7.10;100593;;;;575580;245;24113;-85
2022/03/26 01:56:40;;;;;;;13.93;6.43;;;7.90;99.90;7.00;100599;;;;576086;245;24086;-85
2022/03/26 01:59:11;;;;;;;16.43;9.07;;;7.80;99.90;7.00;100603;;;;585176;245;24097;-87
2022/03/26 02:01:37;;;;;;;13.97;8.10;;;7.80;99.90;6.90;100601;;;;576144;245;24152;-83
2022/03/26 02:04:08;;;;;;;9.93;5.43;;;7.70;99.90;6.90;100599;;;;576849;244;24086;-86
2022/03/26 02:06:32;;;;;;;12.77;8.27;;;7.70;99.90;6.90;100589;;;;577024;245;24175;-85
2022/03/26 02:09:06;;;;;;;15.33;8.73;;;7.70;99.90;6.90;100582;;;;577101;245;24165;-85
2022/03/26 02:11:34;;;;;;;16.03;8.77;;;7.70;99.90;6.80;100580;;;;576893;245;24122;-87
2022/03/26 02:14:02;;;;;;;19.80;8.63;;;7.60;99.90;6.80;100573;;;;576738;245;24097;-86
2022/03/26 02:16:32;;;;;;;12.63;6.10;;;7.60;99.90;6.80;100581;;;;576457;245;24089;-85
2022/03/26 02:19:01;;;;;;;21.07;8.60;;;7.60;99.90;6.80;100576;;;;576815;245;24097;-86
2022/03/26 02:21:27;;;;;;;11.67;6.93;;;7.50;99.90;6.70;100561;;;;576100;245;24103;-85
2022/03/26 02:23:54;;;;;;;8.67;5.00;;;7.60;99.90;6.70;100546;;;;576530;245;25218;-84
2022/03/26 02:26:25;;;;;;;13.40;7.77;;;7.50;99.90;6.70;100554;;;;576505;245;24086;-81
2022/03/26 02:28:50;;;;;;;16.07;7.23;;;7.50;99.90;6.70;100547;;;;576425;245;25276;-83
2022/03/26 02:31:18;;;;;;;15.73;8.13;;;7.50;99.90;6.70;100531;;;;576151;245;24087;-85
2022/03/26 02:33:46;;;;;;;9.83;5.10;;;7.50;99.90;6.70;100534;;;;575997;245;24092;-85
2022/03/26 02:36:18;;;;;;;16.03;8.70;;;7.50;99.90;6.80;100542;;;;576107;245;24140;-84
2022/03/26 02:38:45;;;;;;;14.73;7.57;;;7.50;99.90;6.70;100540;;;;575801;245;24125;-84
2022/03/26 02:41:10;;;;;;;14.67;7.83;;;7.50;99.90;6.70;100545;;;;575993;245;25399;-85
2022/03/26 02:43:38;;;;;;;12.60;3.67;;;7.50;99.90;6.80;100533;;;;576229;245;24080;-86
2022/03/26 02:46:06;;;;;;;10.03;5.40;;;7.50;99.90;6.80;100542;;;;584695;245;24121;-78
2022/03/26 02:48:35;;;;;;;13.73;6.50;;;7.50;99.90;6.80;100539;;;;575811;245;24131;-79
2022/03/26 02:51:04;;;;;;;13.13;6.90;;;7.60;99.90;6.80;100544;;;;575933;245;24147;-78
2022/03/26 02:53:36;;;;;;;11.23;6.00;;;7.60;99.90;6.80;100543;;;;575933;245;24083;-79
2022/03/26 02:56:00;;;;;;;12.53;7.03;;;7.50;99.90;6.80;100518;;;;575552;245;24096;-81
2022/03/26 02:58:32;;;;;;;8.47;5.83;;;7.50;99.90;6.80;100512;;;;575495;245;24200;-81
2022/03/26 03:00:57;;;;;;;19.90;6.80;;;7.50;99.90;6.80;100483;;;;580121;242;24105;-84
2022/03/26 03:03:29;;;;;;;12.37;7.33;;;7.50;99.90;6.70;100480;;;;575514;245;24072;-79
2022/03/26 03:05:54;;;;;;;15.70;8.47;;;7.50;99.90;6.70;100489;;;;584438;243;24148;-81
2022/03/26 03:08:22;;;;;;;10.10;6.43;;;7.50;99.90;6.70;100475;;;;575564;245;24081;-82
2022/03/26 03:10:53;;;;;;;13.87;6.63;;;7.50;99.90;6.70;100473;;;;575395;245;24105;-79
2022/03/26 03:13:21;;;;;;;15.63;8.30;;;7.50;99.90;6.70;100485;;;;574431;245;24110;-81
2022/03/26 03:15:46;;;;;;;11.10;7.50;;;7.50;99.90;6.70;100489;;;;575857;244;24066;-79
2022/03/26 03:18:15;;;;;;;12.87;7.27;;;7.50;99.90;6.70;100483;;;;576650;245;24129;-80
2022/03/26 03:20:46;;;;;;;12.53;6.33;;;7.50;99.90;6.70;100490;;;;576191;245;24114;-78
2022/03/26 03:23:15;;;;;;;12.37;5.67;;;7.50;99.90;6.70;100499;;;;576406;245;24114;-79
2022/03/26 03:25:39;;;;;;;11.90;5.43;;;7.40;99.90;6.70;100493;;;;576256;245;24092;-78
2022/03/26 03:28:07;;;;;;;9.73;5.67;;;7.40;99.90;6.70;100488;;;;576520;245;24164;-79
2022/03/26 03:30:38;;;;;;;10.80;6.37;;;7.50;99.90;6.70;100492;;;;576198;245;24149;-79
2022/03/26 03:33:07;;;;;;;8.60;4.40;;;7.50;99.90;6.70;100508;;;;584511;245;24103;-77
2022/03/26 03:35:31;;;;;;;6.03;4.27;;;7.40;99.90;6.70;100514;;;;584608;242;24166;-81
2022/03/26 03:37:59;;;;;;;9.00;5.80;;;7.50;99.90;6.70;100508;;;;575853;245;24116;-79
2022/03/26 03:40:31;;;;;;;11.70;6.97;;;7.50;99.90;6.60;100527;;;;575872;245;24087;-79
2022/03/26 03:42:56;;;;;;;12.50;5.03;;;7.40;99.90;6.60;100516;;;;575631;245;24129;-79
2022/03/26 03:45:23;;;;;;;13.37;4.83;;;7.40;99.90;6.60;100518;;;;575364;245;24099;-79
2022/03/26 03:47:51;;;;;;;9.77;5.83;;;7.40;99.90;6.60;100509;;;;575854;245;24084;-79
2022/03/26 03:50:19;;;;;;;12.27;6.30;;;7.40;99.90;6.60;100509;;;;575528;245;24100;-77
2022/03/26 03:52:47;;;;;;;15.90;6.37;;;7.30;99.90;6.60;100499;;;;575692;245;24093;-78
2022/03/26 03:55:18;;;;;;;9.10;6.20;;;7.30;99.90;6.50;100502;;;;575746;245;24093;-78
2022/03/26 03:57:46;;;;;;;9.47;6.47;;;7.30;99.90;6.50;100506;;;;575430;245;24085;-78
2022/03/26 04:00:12;;;;;;;12.90;6.57;;;7.30;99.90;6.50;100511;;;;575389;245;24107;-77
2022/03/26 04:02:43;;;;;;;15.00;6.33;;;7.30;99.90;6.50;100516;;;;584132;241;24158;-78
2022/03/26 04:05:13;;;;;;;11.60;7.10;;;7.30;99.90;6.60;100509;;;;575825;245;24099;-77
2022/03/26 04:07:39;;;;;;;20.57;7.03;;;7.30;99.90;6.60;100505;;;;575124;245;24099;-78
2022/03/26 04:10:07;;;;;;;4.03;3.20;;;7.40;99.90;6.70;100503;;;;575884;245;24083;-79
2022/03/26 04:12:38;;;;;;;9.17;5.83;;;7.50;99.90;6.80;100505;;;;584287;245;24099;-79
2022/03/26 04:15:08;;;;;;;13.63;7.57;;;7.60;99.90;6.80;100514;;;;575757;245;24132;-84
2022/03/26 04:17:36;;;;;;;11.80;7.23;;;7.60;99.90;6.90;100513;;;;575958;245;24104;-80
2022/03/26 04:20:07;;;;;;;14.23;6.67;;;7.70;99.90;6.90;100514;;;;584770;245;24073;-78
2022/03/26 04:22:31;;;;;;;13.20;7.97;;;7.70;99.90;7.00;100508;;;;584449;241;24098;-79
2022/03/26 04:24:59;;;;;;;20.23;10.40;;;7.70;99.90;7.00;100522;;;;570656;245;35291;-78
2022/03/26 04:27:27;;;;;;;14.93;10.20;;;7.80;99.90;7.10;100514;;;;576425;244;24113;-80
2022/03/26 04:29:56;;;;;;;18.10;11.40;;;7.90;99.90;7.10;100531;;;;571891;245;35245;-79
2022/03/26 04:32:25;;;;;;;19.73;12.48;;;7.90;99.90;7.10;100528;;;;571519;245;35390;-79
2022/03/26 04:34:53;;;;;;;14.07;9.47;;;7.90;99.90;7.10;100512;;;;576417;245;25165;-78
2022/03/26 04:37:21;;;;;;;15.03;8.87;;;7.90;99.90;7.20;100529;;;;576226;245;24162;-78
2022/03/26 04:39:48;;;;;;;13.10;8.07;;;8.00;99.90;7.20;100520;;;;575701;245;24093;-77
2022/03/26 04:42:17;;;;;;;10.33;5.77;;;8.00;99.90;7.20;100542;;;;575790;245;24065;-78
2022/03/26 04:44:46;;;;;;;10.23;6.43;;;8.00;99.90;7.20;100546;;;;576195;245;24126;-77
2022/03/26 04:47:14;;;;;;;15.90;8.03;;;8.00;99.90;7.20;100551;;;;575816;245;24084;-78
2022/03/26 04:49:42;;;;;;;21.60;11.77;;;8.00;99.90;7.20;100558;;;;570715;245;35366;-81
2022/03/26 04:52:13;;;;;;;18.17;10.80;;;8.00;99.90;7.20;100551;;;;575589;245;25450;-77
2022/03/26 04:54:42;;;;;;;14.53;8.23;;;8.00;99.90;7.20;100549;;;;575099;245;24122;-77
2022/03/26 04:57:07;;;;;;;9.43;5.83;;;8.00;99.90;7.20;100559;;;;575390;245;24087;-78
2022/03/26 04:59:35;;;;;;;10.50;7.43;;;7.90;99.90;7.20;100562;;;;575485;245;24104;-79
2022/03/26 05:02:03;;;;;;;16.50;11.80;;;7.90;99.90;7.20;100568;;;;570893;245;35288;-78
2022/03/26 05:04:31;;;;;;;20.25;13.07;;;8.00;99.90;7.20;100576;;;;570608;245;35294;-76
2022/03/26 05:07:02;;;;;;;19.60;13.57;;;8.10;99.90;7.30;100571;;;;570557;245;35291;-78
2022/03/26 05:09:27;;;;;;;14.27;9.80;;;8.00;99.90;7.30;100579;;;;574578;245;24172;-77
2022/03/26 05:11:56;;;;;;;13.77;8.00;;;8.10;99.90;7.30;100580;;;;575583;245;24088;-78
2022/03/26 05:14:23;;;;;;;12.63;8.37;;;8.10;99.90;7.30;100591;;;;575502;245;24081;-78
2022/03/26 05:16:51;;;;;;;14.33;7.63;;;8.20;99.90;7.40;100590;;;;575588;245;24077;-76
2022/03/26 05:19:19;;;;;;;10.40;8.10;;;8.20;99.90;7.40;100586;;;;575666;245;24081;-79
2022/03/26 05:21:47;;;;;;;14.27;7.83;;;8.20;99.90;7.50;100573;;;;575593;245;24105;-79
2022/03/26 05:24:15;;;;;;;12.67;7.00;;;8.30;99.90;7.50;100578;;;;580323;245;24069;-82
2022/03/26 05:26:43;;;;;;;12.50;7.37;;;8.30;99.90;7.50;100596;;;;575572;245;24116;-81
2022/03/26 05:29:10;;;;;;;16.47;8.90;;;8.30;99.90;7.60;100601;;;;575400;245;24082;-82
2022/03/26 05:31:38;;;;;;;14.77;8.87;;;8.30;99.90;7.60;100599;;;;575564;245;24104;-77
2022/03/26 05:34:06;;;;;;;9.80;6.47;;;8.40;99.90;7.70;100613;;;;575444;245;24112;-82
2022/03/26 05:36:34;;;;;;;19.70;9.47;;;8.40;99.90;7.70;100618;;;;575493;245;24584;-85
2022/03/26 05:39:02;;;;;;;12.53;8.80;;;8.50;99.90;7.70;100616;;;;576695;244;24076;-85
2022/03/26 05:41:31;;;;;;;14.73;8.17;;;8.50;99.90;7.80;100601;;;;576924;245;24119;-84
2022/03/26 05:44:01;;;;;;;15.83;7.27;;;8.60;99.90;7.80;100617;;;;576659;245;24091;-84
2022/03/26 05:46:27;;;;;;;18.37;7.63;;;8.60;99.90;8.00;100618;;;;582949;245;24125;-85
2022/03/26 05:48:54;;;;;;;20.10;8.77;;;8.70;99.90;8.00;100600;;;;575984;241;24123;-85
2022/03/26 05:51:22;;;;;;;16.07;7.40;;;8.80;99.90;8.00;100604;;;;576008;245;24126;-78
2022/03/26 05:53:51;;;;;;;12.90;7.27;;;8.80;99.90;8.00;100616;;;;576453;245;24108;-82
2022/03/26 05:56:19;;;;;;;16.93;8.60;;;8.80;99.90;8.10;100606;;;;576401;245;24139;-79
2022/03/26 05:58:47;;;;;;;10.50;7.37;;;8.80;99.90;8.60;100618;;;;576148;245;24123;-80
2022/03/26 06:01:15;;;;;;;12.27;7.63;;;9.20;99.90;9.20;100625;;;;575938;245;24084;-79
2022/03/26 06:03:44;;;;;;;8.60;4.70;;;10.20;99.90;9.50;100628;;;;575448;245;24085;-79
2022/03/26 06:06:11;;;;;;;20.00;7.73;;;10.10;99.90;9.40;100619;;;;575305;245;24096;-78
2022/03/26 06:08:39;;;;;;;12.90;8.43;;;10.20;99.90;9.40;100641;;;;575405;245;24085;-77
2022/03/26 06:11:07;;;;;;;14.30;7.00;;;10.20;99.90;9.50;100632;;;;575272;245;24103;-79
2022/03/26 06:13:35;;;;;;;9.70;5.77;;;10.30;99.90;9.50;100642;;;;575437;245;24071;-78
2022/03/26 06:16:03;;;;;;;9.53;6.17;;;10.30;99.90;9.50;100634;;;;575140;245;24076;-77
2022/03/26 06:18:31;;;;;;;11.10;6.90;;;10.30;99.90;9.40;100644;;;;574956;245;24091;-78
2022/03/26 06:21:00;;;;;;;14.47;7.30;;;10.20;99.90;9.50;100638;;;;575190;245;24106;-78
2022/03/26 06:23:30;;;;;;;12.47;6.53;;;10.30;99.90;9.60;100651;;;;574977;245;24082;-78
2022/03/26 06:25:55;;;;;;;10.70;6.40;;;10.40;99.90;9.60;100662;;;;574865;245;24095;-78
2022/03/26 06:28:23;;;;;;;15.50;7.57;;;10.40;99.90;9.50;100665;;;;575046;245;24181;-78
2022/03/26 06:30:51;;;;;;;18.73;7.60;;;10.30;99.90;9.50;100662;;;;575216;245;24102;-78
2022/03/26 06:33:18;;;;;;;10.83;7.00;;;10.30;99.90;9.50;100662;;;;575146;245;24111;-79
2022/03/26 06:35:46;;;;;;;12.60;6.70;;;10.30;99.90;9.50;100673;;;;575036;245;24075;-81
2022/03/26 06:38:15;;;;;;;10.87;7.20;;;10.40;99.90;9.60;100663;;;;575170;245;24137;-79
2022/03/26 06:40:43;;;;;;;14.67;7.73;;;10.30;99.90;9.60;100677;;;;574972;245;24084;-79
2022/03/26 06:43:11;;;;;;;9.97;6.33;;;10.40;99.90;9.60;100689;;;;575213;245;24104;-81
2022/03/26 06:45:40;;;;;;;11.20;7.03;;;10.40;99.90;9.50;100684;;;;575110;245;24177;-79
2022/03/26 06:48:10;;;;;;;12.23;7.10;;;10.30;99.90;9.50;100684;;;;574960;245;24123;-81
2022/03/26 06:50:35;;;;;;;17.70;6.87;;;10.30;99.90;9.50;100687;;;;575316;244;24162;-79
2022/03/26 06:53:02;;;;;;;15.60;5.40;;;10.30;99.90;9.60;100695;;;;576260;245;24101;-80
2022/03/26 06:55:30;;;;;;;13.33;7.53;;;10.30;99.90;9.70;100694;;;;576186;245;24101;-81
2022/03/26 06:57:58;;;;;;;11.63;6.37;;;10.40;99.90;10.00;100695;;;;575862;245;24137;-79
2022/03/26 07:00:26;;;;;;;12.40;7.10;;;10.70;99.90;10.60;100706;;;;575857;245;24086;-85
2022/03/26 07:02:54;;;;;;;13.93;6.50;;;11.20;99.90;10.90;100711;;;;575667;245;24111;-80
2022/03/26 07:05:22;;;;;;;14.73;6.97;;;11.50;99.90;11.20;100709;;;;576126;245;24100;-80
2022/03/26 07:07:50;;;;;;;10.07;6.80;;;11.80;99.90;11.60;100716;;;;576133;245;24138;-85
2022/03/26 07:10:18;;;;;;;8.33;4.87;;;12.20;99.90;12.30;100715;;;;584702;245;24118;-82
2022/03/26 07:12:46;;;;;;;12.17;7.03;;;12.70;99.90;13.40;100717;;;;575895;245;24112;-86
2022/03/26 07:15:14;;;;;;;11.87;5.70;;;13.70;99.90;14.20;100742;;;;575931;245;24073;-83
2022/03/26 07:17:45;;;;;;;12.07;6.50;;;14.60;99.90;15.10;100735;;;;575978;245;24093;-84
2022/03/26 07:20:14;;;;;;;9.00;6.57;;;15.40;99.90;15.90;100731;;;;576134;245;24087;-83
2022/03/26 07:22:44;;;;;;;8.97;6.40;;;16.20;99.90;16.50;100733;;;;584851;242;24132;-82
2022/03/26 07:25:12;;;;;;;13.40;6.83;;;17.40;99.90;16.80;100744;;;;576035;245;24069;-79
2022/03/26 07:27:41;;;;;;;7.07;6.10;;;17.60;99.40;17.00;100734;;;;575190;245;24075;-81
2022/03/26 07:30:12;;;;;;;10.37;6.00;;;17.50;99.30;17.20;100740;;;;575622;245;24103;-85
2022/03/26 07:32:36;;;;;;;7.80;6.53;;;17.80;97.10;17.70;100756;;;;579303;245;24085;-84
2022/03/26 07:35:04;;;;;;;6.53;5.80;;;18.10;95.90;18.30;100750;;;;584344;245;24088;-80
2022/03/26 07:37:32;;;;;;;12.23;6.13;;;18.70;93.60;19.00;100754;;;;584204;242;24091;-79
2022/03/26 07:40:00;;;;;;;11.17;6.13;;;19.30;90.90;19.70;100761;;;;575256;245;24096;-79
2022/03/26 07:42:28;;;;;;;10.47;5.93;;;20.00;86.90;20.10;100750;;;;575425;245;24078;-79
2022/03/26 07:44:56;;;;;;;6.80;6.00;;;20.50;82.00;20.20;100758;;;;579546;245;24085;-79
2022/03/26 07:47:24;;;;;;;10.63;6.30;;;20.80;77.90;19.90;100750;;;;575693;245;24064;-78
2022/03/26 07:49:52;;;;;;;7.93;5.67;;;20.60;76.60;20.10;100755;;;;575532;245;23106;-79
2022/03/26 07:52:20;;;;;;;7.83;5.90;;;20.70;75.80;20.40;100760;;;;576405;245;23089;-83
2022/03/26 07:54:48;;;;;;;8.93;6.87;;;21.40;72.40;20.90;100760;;;;570916;245;35251;-78
2022/03/26 07:57:17;;;;;;;7.57;5.57;;;21.80;70.70;21.20;100765;;;;575111;245;24077;-78
2022/03/26 07:59:46;;;;;;;9.23;5.43;;;21.80;68.70;21.20;100778;;;;575850;245;24066;-83
2022/03/26 08:02:14;;;;;;;7.90;5.43;;;21.80;68.50;20.60;100788;;;;576232;244;24065;-79
2022/03/26 08:04:42;;;;;;;6.90;5.10;;;21.50;67.60;20.00;100776;;;;576755;245;24088;-78
2022/03/26 08:07:10;;;;;;;9.17;5.47;;;20.90;68.20;19.90;100777;;;;576301;245;24094;-78
2022/03/26 08:09:37;;;;;;;7.07;5.13;;;20.60;69.40;20.40;100778;;;;576374;245;24083;-78
2022/03/26 08:12:05;;;;;;;8.37;5.00;;;20.90;68.90;21.00;100801;;;;576132;245;24072;-78
2022/03/26 08:14:34;;;;;;;7.17;4.87;;;21.50;66.40;20.90;100781;;;;576013;245;24093;-79
2022/03/26 08:17:01;;;;;;;7.07;4.57;;;21.50;65.70;20.90;100791;;;;576058;245;24208;-78
2022/03/26 08:19:29;;;;;;;8.50;5.00;;;21.60;65.20;20.90;100797;;;;576132;245;24150;-80
2022/03/26 08:21:57;;;;;;;6.80;4.40;;;21.60;64.60;20.40;100809;;;;575790;245;24086;-79
2022/03/26 08:24:25;;;;;;;10.63;5.53;;;21.20;64.80;20.40;100797;;;;575752;245;24058;-78
2022/03/26 08:26:54;;;;;;;7.62;5.15;;;21.10;65.30;20.80;100802;;;;570720;245;46180;-79
2022/03/26 08:29:21;;;;;;;6.70;5.13;;;21.20;65.70;21.40;100809;;;;575789;245;24097;-80
2022/03/26 08:31:49;;;;;;;8.27;4.85;;;21.80;64.00;21.90;100814;;;;570475;245;35257;-78
2022/03/26 08:34:18;;;;;;;6.90;4.13;;;22.40;61.80;21.80;100810;;;;575364;245;24136;-78
2022/03/26 08:36:48;;;;;;;7.50;4.30;;;22.50;61.00;21.00;100817;;;;584289;241;24089;-79
2022/03/26 08:39:12;;;;;;;8.80;4.87;;;22.10;60.50;20.10;100819;;;;574637;245;24142;-79
2022/03/26 08:41:40;;;;;;;7.23;4.50;;;21.20;62.20;19.90;100823;;;;564555;250;24106;-78
2022/03/26 08:44:08;;;;;;;5.50;4.37;;;20.90;63.20;19.00;100829;;;;564437;250;24097;-78
2022/03/26 08:46:37;;;;;;;7.53;4.07;;;20.10;64.60;18.10;100829;;;;564539;250;24109;-78
2022/03/26 08:49:05;;;;;;;7.23;3.87;;;19.30;66.00;17.30;100828;;;;564510;250;24117;-80
2022/03/26 08:51:34;;;;;;;5.33;3.60;;;18.20;69.90;17.40;100852;;;;564431;250;24101;-80
2022/03/26 08:54:03;;;;;;;5.63;3.40;;;17.80;70.40;16.90;100845;;;;564777;250;24171;-78
2022/03/26 08:56:31;;;;;;;5.40;3.83;;;17.70;70.20;17.00;100844;;;;564957;250;24176;-78
2022/03/26 08:59:02;;;;;;;7.27;4.20;;;17.60;72.00;17.60;100847;;;;565494;250;24106;-78
2022/03/26 09:01:27;;;;;;;6.27;3.63;;;18.00;71.50;18.90;100853;;;;565175;250;24102;-78
2022/03/26 09:03:54;;;;;;;4.97;3.43;;;19.20;68.90;18.70;100847;;;;574392;249;24087;-78
2022/03/26 09:06:22;;;;;;;9.13;3.53;;;19.40;64.80;17.90;100853;;;;565745;250;24136;-79
2022/03/26 09:08:50;;;;;;;3.73;3.37;;;18.90;65.80;18.10;100849;;;;565199;250;24098;-80
2022/03/26 09:11:18;;;;;;;11.82;3.87;;;18.80;67.50;18.90;100852;;;;559990;250;35395;-79
2022/03/26 09:13:47;;;;;;;5.70;3.20;;;19.90;64.10;19.40;100848;;;;565494;249;23144;-79
2022/03/26 09:16:17;;;;;;;4.77;3.03;;;19.90;62.10;19.20;100857;;;;566014;249;24101;-80
2022/03/26 09:18:44;;;;;;;4.90;2.97;;;20.00;63.80;19.50;100862;;;;565663;250;24103;-80
2022/03/26 09:21:12;;;;;;;6.03;3.10;;;20.00;62.90;21.10;100874;;;;565506;250;24179;-79
2022/03/26 09:23:40;;;;;;;5.13;3.70;;;21.40;60.40;22.70;100875;;;;565398;250;24108;-79
2022/03/26 09:26:08;;;;;;;3.23;2.93;;;23.10;56.60;22.40;100881;;;;565300;250;24133;-79
2022/03/26 09:28:36;;;;;;;5.23;3.70;;;23.40;53.80;21.50;100881;;;;565452;250;24099;-80
2022/03/26 09:31:04;;;;;;;4.27;2.27;;;22.70;53.90;20.30;100879;;;;565368;250;24104;-78
2022/03/26 09:33:32;;;;;;;2.60;2.27;;;21.80;54.80;19.80;100890;;;;564748;250;24130;-82
2022/03/26 09:36:00;;;;;;;6.13;3.67;;;20.20;57.20;18.90;100884;;;;564768;250;24194;-79
2022/03/26 09:38:28;;;;;;;7.27;3.27;;;20.20;57.20;18.00;100879;;;;564711;250;25191;-78
2022/03/26 09:41:00;;;;;;;5.57;3.50;;;19.30;59.00;17.60;100889;;;;564751;250;24130;-79
2022/03/26 09:43:28;;;;;;;5.17;2.80;;;18.60;61.00;17.20;100890;;;;564474;250;24194;-81
2022/03/26 09:45:52;;;;;;;5.10;3.10;;;18.10;62.70;16.40;100881;;;;564442;246;35396;-81
2022/03/26 09:48:20;;;;;;;3.17;2.17;;;17.40;64.60;15.60;100888;;;;564976;250;24119;-83
2022/03/26 09:50:48;;;;;;;4.00;2.37;;;16.60;66.80;15.10;100893;;;;564677;250;24150;-82
2022/03/26 09:53:19;;;;;;;4.63;1.87;;;16.00;68.30;14.60;100890;;;;565257;250;24091;-82
2022/03/26 09:55:46;;;;;;;4.00;1.47;;;15.50;68.80;14.20;100897;;;;577005;248;24132;-83
2022/03/26 09:58:12;;;;;;;6.07;2.50;;;15.00;69.70;13.90;100890;;;;568277;249;24081;-80
2022/03/26 10:00:39;;;;;;;2.30;1.80;;;14.60;70.70;13.80;100913;;;;565259;250;24094;-78
2022/03/26 10:03:07;;;;;;;6.33;1.63;;;14.40;71.10;13.70;100907;;;;565136;250;24153;-79
2022/03/26 10:05:35;;;;;;;2.83;1.53;;;14.30;71.80;14.00;100913;;;;564724;250;24139;-83
2022/03/26 10:08:18;;;;;;;3.27;1.67;;;14.60;71.00;13.90;100915;;;;564865;250;24248;-74
2022/03/26 10:10:46;;;;;;;3.33;1.43;;;14.50;70.90;13.80;100934;;;;564491;250;24219;-74
2022/03/26 10:13:33;;;;;;;5.57;1.03;;;14.40;71.40;13.60;100924;;;;564674;250;24114;-74
2022/03/26 10:16:01;;;;;;;4.83;1.20;;;14.30;67.20;13.30;100933;;;;565013;249;24110;-72
2022/03/26 10:18:41;;;;;;;15.57;1.47;;;14.10;60.70;12.90;100939;;;;575548;247;24088;-74
2022/03/26 10:21:11;;;;;;;1.77;1.17;;;13.80;56.80;12.50;100938;;;;572045;249;24087;-76
2022/03/26 10:23:51;;;;;;;2.43;0.60;;;13.40;55.60;12.20;100955;;;;576235;249;24099;-75
2022/03/26 10:26:21;;;;;;;1.20;0.57;;;12.70;53.20;11.90;100952;;;;566587;248;24189;-79
2022/03/26 10:28:54;;;;;;;6.33;0.87;;;12.70;53.40;12.00;100963;;;;565455;248;25144;-77
2022/03/26 10:34:13;;;;;;;6.97;0.90;;;12.80;52.70;12.10;100962;;;;565267;250;24167;-72
2022/03/26 10:36:46;;;;;;;2.83;0.50;;;12.80;52.60;11.90;100964;;;;573209;245;24118;-72
2022/03/26 10:39:17;;;;;;;2.95;1.00;;;12.60;53.00;11.40;100969;;;;562740;248;35156;-82
2022/03/26 10:41:45;;;;;;;7.20;0.87;;;12.30;52.60;11.10;100977;;;;576579;243;24123;-79
2022/03/26 10:44:13;;;;;;;5.00;0.87;;;11.90;50.70;10.80;100967;;;;567912;249;24206;-78
2022/03/26 10:46:46;;;;;;;4.27;0.90;;;11.70;51.50;10.70;100977;;;;564230;248;24079;-78
2022/03/26 10:49:16;;;;;;;2.93;0.70;;;11.20;52.60;10.50;100976;;;;576155;243;24108;-80
2022/03/26 10:51:45;;;;;;;2.83;1.07;;;11.00;52.50;10.20;100981;;;;564089;250;24158;-80
2022/03/26 10:54:15;;;;;;;5.80;1.43;;;11.00;52.40;10.00;100983;;;;574182;250;24148;-79
2022/03/26 10:56:40;;;;;;;1.23;0.30;;;10.80;53.00;9.80;100986;;;;574868;245;24119;-77
2022/03/26 10:59:08;;;;;;;0.43;0.40;;;10.60;52.70;9.60;100988;;;;568987;250;24144;-77
2022/03/26 11:01:36;;;;;;;0.67;0.23;;;10.30;54.10;9.50;100978;;;;575818;243;24135;-78
2022/03/26 11:04:05;;;;;;;3.00;0.30;;;10.10;53.70;9.40;100982;;;;564149;250;24114;-77
2022/03/26 11:06:33;;;;;;;4.03;0.47;;;10.10;53.70;9.30;100982;;;;564772;250;24124;-79
2022/03/26 11:09:01;;;;;;;3.87;0.60;;;10.00;54.10;9.20;100979;;;;564233;250;24223;-80
2022/03/26 11:11:29;;;;;;;2.93;0.67;;;9.90;55.90;9.20;100982;;;;564101;248;24128;-79
2022/03/26 11:13:57;;;;;;;3.77;0.60;;;9.90;55.30;9.10;100983;;;;564499;250;24128;-78
2022/03/26 11:16:40;;;;;;;0.77;0.30;;;9.80;55.80;9.00;100985;;;;566606;248;24217;-79
2022/03/26 11:19:45;;;;;;;0.80;0.43;;;9.70;55.60;8.90;100993;;;;564543;250;24117;-79
2022/03/26 11:22:46;;;;;;;3.23;0.73;;;9.60;56.60;8.80;100994;;;;573335;250;24116;-80